Queens Launch — WBJ9598 — position and weather

sailwx.info

Track history (hours):
 
Tides and Currents Weather Stations Pressure Air Temp Water Temp Dewpoint Dewpoint Depression Visibility Wind Speed Wind Dir Waves Ship Positions

Queens Launch

Owner: SEATTLE HARBOR TOURS/ARGOSY, SEATTLE, WA. More information available from US FCC via Universal Licensing System and Coast Guard Vessel Documentation Center.

Last reported at 2014-Sep-28 01:37 UTC. Time now 2014-Dec-23 00:50 UTC.
Position N 47°38' W 122°20'.
Warning: this ship's position is months out of date.

Length 12 m.

Type: Passenger vessel. MMSI: 367299090.

Date/timePositionNaut miles runAvg speedWind from/ knotsBaromVisibWave heightAir tempDewpointWater temp
2014-Sep-28 01:37N 47°38' W 122°20'0 0.0
2014-Sep-28 01:33N 47°38' W 122°20'0 0.0
2014-Sep-28 01:32N 47°38' W 122°20'0 0.0
2014-Sep-28 00:32N 47°38' W 122°20'0 0.0
2014-Sep-28 00:32N 47°38' W 122°20'4 3.6
2014-Sep-27 23:32N 47°38' W 122°15'0 1.8
2014-Sep-27 23:26N 47°38' W 122°15'4 4.2
2014-Sep-27 22:33N 47°38' W 122°20'0 0.0
2014-Sep-27 22:31N 47°38' W 122°20'3 2.7
2014-Sep-27 21:31N 47°38' W 122°16'0 7.6
2014-Sep-27 21:30N 47°38' W 122°16'2 2.4
2014-Sep-27 20:31N 47°39' W 122°20'0 3.4
2014-Sep-27 20:31N 47°39' W 122°20'1 0.9
2014-Sep-27 19:32N 47°38' W 122°20'0 0.0
2014-Sep-27 19:21N 47°38' W 122°20'0 0.0
2014-Sep-27 18:33N 47°38' W 122°20'0 0.0
2014-Sep-27 18:31N 47°38' W 122°20'0 0.0
2014-Sep-27 17:33N 47°38' W 122°20'0 0.4
2014-Sep-27 17:30N 47°38' W 122°20'  
2014-Sep-21 01:20N 47°38' W 122°20'0 0.0
2014-Sep-21 00:33N 47°38' W 122°20'4 3.2
2014-Sep-20 23:27N 47°38' W 122°15'3 3.7
2014-Sep-20 22:34N 47°38' W 122°20'3 2.1
2014-Sep-20 21:20N 47°39' W 122°16'2 2.2
2014-Sep-20 20:18N 47°39' W 122°20'1 1.3
2014-Sep-20 19:31N 47°38' W 122°20'0 0.0
2014-Sep-20 18:33N 47°38' W 122°20'0 0.0
2014-Sep-20 17:33N 47°38' W 122°20'  
2014-Sep-18 04:12N 47°38' W 122°20'0 0.0
2014-Sep-18 03:33N 47°38' W 122°20'3 2.2
2014-Sep-18 02:13N 47°39' W 122°16'  
Track history (hours):
 
Tides and Currents Weather Stations Pressure Air Temp Water Temp Dewpoint Dewpoint Depression Visibility Wind Speed Wind Dir Waves Ship Positions

Queens Launch

Owner: SEATTLE HARBOR TOURS/ARGOSY, SEATTLE, WA. More information available from US FCC via Universal Licensing System and Coast Guard Vessel Documentation Center.

Last reported at 2014-Sep-28 01:37 UTC. Time now 2014-Dec-23 00:50 UTC.
Position N 47°38' W 122°20'.
Warning: this ship's position is months out of date.

Length 12 m.

Type: Passenger vessel. MMSI: 367299090.

Date/timePositionNaut miles runAvg speedWind from/ knotsBaromVisibWave heightAir tempDewpointWater temp
2014-Sep-28 01:37N 47°38' W 122°20'0 0.0
2014-Sep-28 01:33N 47°38' W 122°20'0 0.0
2014-Sep-28 01:32N 47°38' W 122°20'0 0.0
2014-Sep-28 00:32N 47°38' W 122°20'0 0.0
2014-Sep-28 00:32N 47°38' W 122°20'4 3.6
2014-Sep-27 23:32N 47°38' W 122°15'0 1.8
2014-Sep-27 23:26N 47°38' W 122°15'4 4.2
2014-Sep-27 22:33N 47°38' W 122°20'0 0.0
2014-Sep-27 22:31N 47°38' W 122°20'3 2.7
2014-Sep-27 21:31N 47°38' W 122°16'0 7.6
2014-Sep-27 21:30N 47°38' W 122°16'2 2.4
2014-Sep-27 20:31N 47°39' W 122°20'0 3.4
2014-Sep-27 20:31N 47°39' W 122°20'1 0.9
2014-Sep-27 19:32N 47°38' W 122°20'0 0.0
2014-Sep-27 19:21N 47°38' W 122°20'0 0.0
2014-Sep-27 18:33N 47°38' W 122°20'0 0.0
2014-Sep-27 18:31N 47°38' W 122°20'0 0.0
2014-Sep-27 17:33N 47°38' W 122°20'0 0.4
2014-Sep-27 17:30N 47°38' W 122°20'  
2014-Sep-21 01:20N 47°38' W 122°20'0 0.0
2014-Sep-21 00:33N 47°38' W 122°20'4 3.2
2014-Sep-20 23:27N 47°38' W 122°15'3 3.7
2014-Sep-20 22:34N 47°38' W 122°20'3 2.1
2014-Sep-20 21:20N 47°39' W 122°16'2 2.2
2014-Sep-20 20:18N 47°39' W 122°20'1 1.3
2014-Sep-20 19:31N 47°38' W 122°20'0 0.0
2014-Sep-20 18:33N 47°38' W 122°20'0 0.0
2014-Sep-20 17:33N 47°38' W 122°20'  
2014-Sep-18 04:12N 47°38' W 122°20'0 0.0
2014-Sep-18 03:33N 47°38' W 122°20'3 2.2
2014-Sep-18 02:13N 47°39' W 122°16'  

Dump ship's entire track history